Terminal Aerodrome Forecast
Issued by NWS

Home | Current Version | Previous Version | Text Only | Print | Product List | Glossary On
Versions: 1 2 3 4 5 6 7 8 9 10 11 12 13 14 15
000
FTUS42 KTBW 252017 AAA
TAFPGD
TAF AMD
KPGD 252017Z 2520/2618 06007KT P6SM VCTS BKN050CB
      TEMPO 2520/2524 VRB15G25KT 3SM TSRA BKN030CB
     FM260300 VRB04KT P6SM SCT035
     FM261700 18004KT P6SM BKN080=

USA.gov is the U.S. government's official web portal to all federal, state and local government web resources and services.